createdAt,value
2019-05-23T00:00:37.973Z,14.14
2019-05-23T00:03:08.688Z,14.12
2019-05-23T00:05:43.999Z,14.10
2019-05-23T00:08:15.750Z,14.12
2019-05-23T00:10:53.414Z,14.02
2019-05-23T00:13:43.450Z,14.04
2019-05-23T00:16:13.018Z,14.10
2019-05-23T00:18:42.699Z,14.09
2019-05-23T00:21:12.200Z,14.13
2019-05-23T00:23:42.523Z,14.16
2019-05-23T00:26:14.556Z,14.23
2019-05-23T00:28:44.506Z,14.14
2019-05-23T00:31:21.224Z,14.17
2019-05-23T00:33:51.693Z,14.07
2019-05-23T00:36:23.191Z,13.97
2019-05-23T00:38:54.468Z,13.76
2019-05-23T00:41:25.136Z,13.65
2019-05-23T00:43:55.208Z,13.45
2019-05-23T00:46:24.663Z,13.33
2019-05-23T00:48:54.625Z,13.33
2019-05-23T00:51:25.845Z,13.34
2019-05-23T00:53:56.408Z,13.22
2019-05-23T00:56:26.530Z,13.15
2019-05-23T00:58:56.229Z,13.08
2019-05-23T01:01:27.159Z,13.13
2019-05-23T01:03:57.475Z,13.08
2019-05-23T01:06:28.204Z,12.99
2019-05-23T01:08:58.622Z,12.99
2019-05-23T01:11:28.498Z,13.03
2019-05-23T01:13:59.345Z,12.94
2019-05-23T01:16:30.612Z,12.87
2019-05-23T01:19:00.084Z,12.89
2019-05-23T01:21:55.180Z,12.89
2019-05-23T01:24:44.274Z,12.87
2019-05-23T01:27:14.303Z,12.90
2019-05-23T01:29:50.069Z,12.86
2019-05-23T01:32:26.579Z,12.80
2019-05-23T01:34:56.699Z,12.80
2019-05-23T01:37:26.133Z,12.77
2019-05-23T01:39:55.941Z,12.75
2019-05-23T01:42:25.981Z,12.74
2019-05-23T01:44:55.806Z,12.73
2019-05-23T01:47:25.886Z,12.66
2019-05-23T01:49:57.422Z,12.59
2019-05-23T01:52:27.694Z,12.59
2019-05-23T01:54:57.336Z,12.54
2019-05-23T01:57:26.877Z,12.59
2019-05-23T02:00:09.000Z,12.58
2019-05-23T02:02:29.567Z,12.58
2019-05-23T02:04:59.750Z,12.59
2019-05-23T02:07:30.221Z,12.62
2019-05-23T02:09:59.601Z,12.69
2019-05-23T02:12:29.094Z,12.73
2019-05-23T02:14:59.784Z,12.73
2019-05-23T02:17:30.349Z,12.74
2019-05-23T02:20:01.678Z,12.81
2019-05-23T02:22:31.345Z,12.80
2019-05-23T02:25:02.945Z,12.77
2019-05-23T02:27:33.152Z,12.77
2019-05-23T02:30:02.901Z,12.78
2019-05-23T02:32:33.998Z,12.74
2019-05-23T02:35:04.339Z,12.71
2019-05-23T02:37:52.499Z,12.46
2019-05-23T02:40:44.029Z,12.46
2019-05-23T02:43:14.819Z,12.27
2019-05-23T02:45:49.189Z,12.25
2019-05-23T02:48:21.847Z,12.15
2019-05-23T02:50:58.688Z,12.15
2019-05-23T02:53:31.404Z,12.13
2019-05-23T02:56:07.879Z,12.08
2019-05-23T02:58:53.220Z,12.04
2019-05-23T03:02:08.413Z,11.94
2019-05-23T03:04:38.755Z,12.03
2019-05-23T03:07:09.867Z,11.93
2019-05-23T03:09:40.004Z,11.95
2019-05-23T03:12:11.961Z,11.93
2019-05-23T03:14:42.809Z,11.88
2019-05-23T03:17:16.327Z,11.89
2019-05-23T03:19:55.922Z,11.86
2019-05-23T03:22:28.535Z,11.89
2019-05-23T03:25:03.227Z,11.90
2019-05-23T03:27:38.187Z,11.82
2019-05-23T03:30:10.553Z,11.82
2019-05-23T03:32:49.102Z,11.80
2019-05-23T03:35:36.514Z,11.85
2019-05-23T03:38:06.449Z,11.83
2019-05-23T03:40:36.444Z,11.81
2019-05-23T03:43:08.514Z,11.83
2019-05-23T03:45:40.531Z,11.90
2019-05-23T03:48:11.698Z,11.86
2019-05-23T03:50:41.039Z,11.99
2019-05-23T03:53:10.840Z,12.03
2019-05-23T03:55:42.579Z,12.04
2019-05-23T03:58:12.963Z,12.04
2019-05-23T04:00:49.894Z,12.12
2019-05-23T04:03:20.760Z,12.18
2019-05-23T04:05:50.384Z,12.32
2019-05-23T04:08:23.471Z,12.35
2019-05-23T04:10:53.202Z,12.49
2019-05-23T04:13:23.777Z,12.60
2019-05-23T04:15:53.506Z,12.63
2019-05-23T04:18:22.938Z,12.76
2019-05-23T04:20:52.365Z,12.74
2019-05-23T04:23:22.084Z,12.85
2019-05-23T04:25:51.855Z,12.82
2019-05-23T04:28:22.977Z,13.05
2019-05-23T04:30:52.429Z,13.14
2019-05-23T04:33:21.852Z,13.20
2019-05-23T04:35:51.220Z,13.30
2019-05-23T04:38:20.839Z,13.30
2019-05-23T04:40:50.460Z,13.37
2019-05-23T04:43:20.238Z,13.48
2019-05-23T04:45:50.278Z,13.56
2019-05-23T04:48:21.075Z,13.69
2019-05-23T04:50:50.394Z,13.85
2019-05-23T04:53:20.184Z,13.95
2019-05-23T04:55:49.638Z,14.10
2019-05-23T04:58:19.341Z,14.24
2019-05-23T05:00:49.123Z,14.40
2019-05-23T05:03:20.168Z,14.46
2019-05-23T05:05:49.511Z,14.57
2019-05-23T05:08:21.036Z,14.74
2019-05-23T05:10:51.113Z,14.83
2019-05-23T05:13:20.869Z,14.81
2019-05-23T05:15:50.758Z,14.89
2019-05-23T05:18:20.364Z,15.03
2019-05-23T05:20:49.753Z,15.06
2019-05-23T05:23:19.144Z,15.19
2019-05-23T05:25:48.491Z,15.20
2019-05-23T05:28:20.279Z,15.32
2019-05-23T05:30:49.789Z,15.31
2019-05-23T05:33:19.332Z,15.25
2019-05-23T05:35:49.163Z,15.25
2019-05-23T05:38:19.635Z,15.17
2019-05-23T05:40:49.075Z,15.24
2019-05-23T05:43:18.742Z,15.32
2019-05-23T05:45:48.143Z,15.55
2019-05-23T05:48:18.395Z,15.68
2019-05-23T05:50:48.861Z,15.73
2019-05-23T05:53:18.894Z,15.58
2019-05-23T05:55:48.300Z,15.63
2019-05-23T05:58:17.699Z,15.69
2019-05-23T06:00:56.563Z,15.71
2019-05-23T06:03:25.989Z,15.56
2019-05-23T06:06:20.525Z,15.34
2019-05-23T06:08:54.461Z,15.33
2019-05-23T06:11:24.053Z,15.40
2019-05-23T06:13:54.100Z,15.45
2019-05-23T06:16:23.657Z,15.58
2019-05-23T06:18:53.122Z,15.59
2019-05-23T06:21:28.930Z,15.63
2019-05-23T06:23:58.347Z,15.66
2019-05-23T06:26:27.730Z,15.67
2019-05-23T06:28:57.166Z,15.63
2019-05-23T06:31:26.976Z,15.68
2019-05-23T06:33:56.661Z,15.81
2019-05-23T06:36:27.468Z,15.95
2019-05-23T06:38:57.056Z,16.10
2019-05-23T06:41:26.958Z,16.30
2019-05-23T06:43:56.488Z,16.48
2019-05-23T06:46:27.173Z,16.60
2019-05-23T06:48:56.766Z,16.46
2019-05-23T06:51:27.243Z,16.41
2019-05-23T06:53:56.724Z,16.40
2019-05-23T06:56:26.336Z,16.32
2019-05-23T06:58:55.625Z,16.47
2019-05-23T07:01:25.267Z,16.67
2019-05-23T07:03:54.749Z,16.84
2019-05-23T07:06:25.305Z,16.77
2019-05-23T07:08:54.980Z,16.78
2019-05-23T07:11:25.377Z,16.71
2019-05-23T07:13:55.333Z,16.47
2019-05-23T07:16:24.779Z,16.36
2019-05-23T07:18:54.176Z,16.33
2019-05-23T07:21:24.009Z,16.47
2019-05-23T07:23:53.457Z,16.56
2019-05-23T07:26:23.077Z,16.65
2019-05-23T07:28:53.238Z,16.69
2019-05-23T07:31:22.690Z,16.76
2019-05-23T07:34:01.981Z,16.91
2019-05-23T07:36:23.216Z,17.10
2019-05-23T07:38:52.599Z,17.08
2019-05-23T07:41:21.951Z,17.45
2019-05-23T07:43:52.191Z,17.63
2019-05-23T07:46:21.670Z,17.69
2019-05-23T07:48:51.490Z,17.59
2019-05-23T07:51:20.860Z,17.73
2019-05-23T07:54:03.723Z,17.75
2019-05-23T07:56:34.135Z,17.55
2019-05-23T07:59:03.829Z,17.42
2019-05-23T08:01:37.052Z,17.39
2019-05-23T08:04:20.493Z,17.40
2019-05-23T08:06:38.408Z,17.06
2019-05-23T08:09:09.701Z,16.88
2019-05-23T08:11:39.088Z,16.91
2019-05-23T08:14:11.809Z,17.05
2019-05-23T08:16:39.739Z,17.36
2019-05-23T08:19:09.208Z,17.57
2019-05-23T08:21:38.565Z,17.41
2019-05-23T08:24:08.274Z,17.25
2019-05-23T08:26:37.640Z,17.19
2019-05-23T08:29:26.012Z,17.35
2019-05-23T08:31:38.799Z,17.55
2019-05-23T08:34:08.987Z,17.67
2019-05-23T08:36:38.669Z,17.80
2019-05-23T08:39:10.577Z,18.07
2019-05-23T08:41:40.788Z,18.04
2019-05-23T08:44:11.551Z,17.87
2019-05-23T08:46:42.801Z,17.63
2019-05-23T08:49:12.549Z,17.45
2019-05-23T08:51:41.884Z,17.38
2019-05-23T08:54:12.311Z,17.50
2019-05-23T08:56:41.753Z,17.52
2019-05-23T08:59:12.894Z,17.77
2019-05-23T09:01:42.339Z,17.82
2019-05-23T09:04:11.768Z,18.11
2019-05-23T09:06:42.444Z,18.24
2019-05-23T09:09:28.332Z,18.29
2019-05-23T09:11:49.036Z,18.48
2019-05-23T09:14:18.384Z,18.44
2019-05-23T09:16:48.061Z,18.81
2019-05-23T09:19:17.374Z,18.98
2019-05-23T09:21:46.827Z,19.10
2019-05-23T09:24:16.384Z,18.76
2019-05-23T09:26:46.242Z,18.46
2019-05-23T09:29:16.578Z,18.26
2019-05-23T09:31:46.608Z,18.37
2019-05-23T09:34:16.125Z,18.59
2019-05-23T09:36:45.488Z,18.61
2019-05-23T09:39:17.596Z,18.63
2019-05-23T09:41:47.614Z,19.03
2019-05-23T09:44:16.993Z,19.23
2019-05-23T09:46:46.457Z,19.11
2019-05-23T09:49:16.091Z,19.03
2019-05-23T09:51:46.832Z,19.23
2019-05-23T09:54:16.977Z,19.23
2019-05-23T09:56:46.320Z,19.48
2019-05-23T09:59:15.682Z,19.60
2019-05-23T10:01:45.237Z,19.81
2019-05-23T10:04:14.728Z,19.63
2019-05-23T10:06:46.348Z,19.60
2019-05-23T10:09:15.225Z,19.33
2019-05-23T10:11:44.693Z,19.70
2019-05-23T10:14:19.415Z,19.87
2019-05-23T10:16:48.772Z,19.92
2019-05-23T10:19:18.119Z,19.71
2019-05-23T10:21:47.586Z,19.77
2019-05-23T10:24:16.931Z,19.69
2019-05-23T10:26:46.264Z,19.70
2019-05-23T10:29:15.660Z,19.68
2019-05-23T10:31:45.089Z,19.78
2019-05-23T10:34:14.443Z,20.22
2019-05-23T10:36:44.220Z,20.24
2019-05-23T10:39:15.917Z,20.17
2019-05-23T10:41:45.664Z,20.44
2019-05-23T10:44:15.012Z,20.85
2019-05-23T10:46:44.492Z,20.70
2019-05-23T10:49:13.858Z,20.81
2019-05-23T10:51:43.395Z,21.19
2019-05-23T10:54:13.612Z,21.13
2019-05-23T10:56:42.949Z,21.40
2019-05-23T10:59:12.326Z,21.29
2019-05-23T11:01:41.689Z,21.50
2019-05-23T11:04:11.075Z,21.29
2019-05-23T11:06:40.718Z,21.26
2019-05-23T11:09:11.557Z,21.47
2019-05-23T11:11:41.277Z,21.83
2019-05-23T11:14:11.179Z,21.85
2019-05-23T11:16:40.559Z,21.81
2019-05-23T11:19:10.122Z,22.17
2019-05-23T11:21:39.587Z,22.38
2019-05-23T11:24:10.022Z,22.36
2019-05-23T11:26:39.472Z,22.79
2019-05-23T11:29:09.106Z,22.51
2019-05-23T11:31:38.732Z,22.20
2019-05-23T11:34:08.055Z,22.53
2019-05-23T11:36:37.463Z,22.84
2019-05-23T11:39:08.877Z,22.90
2019-05-23T11:41:41.412Z,23.13
2019-05-23T11:44:10.880Z,23.40
2019-05-23T11:46:40.696Z,23.24
2019-05-23T11:49:10.065Z,23.54
2019-05-23T11:51:39.439Z,23.85
2019-05-23T11:54:10.108Z,23.46
2019-05-23T11:56:39.970Z,23.21
2019-05-23T11:59:10.132Z,23.25
2019-05-23T12:02:02.007Z,23.34
2019-05-23T12:04:38.314Z,23.23
2019-05-23T12:07:12.530Z,23.29
2019-05-23T12:09:42.015Z,23.22
2019-05-23T12:12:11.552Z,22.90
2019-05-23T12:14:42.175Z,22.83
2019-05-23T12:17:12.856Z,23.16
2019-05-23T12:19:42.471Z,23.36
2019-05-23T12:22:12.389Z,23.29
2019-05-23T12:24:41.708Z,23.38
2019-05-23T12:27:11.139Z,23.67
2019-05-23T12:29:40.611Z,24.01
2019-05-23T12:32:11.675Z,24.24
2019-05-23T12:34:41.050Z,24.64
2019-05-23T12:37:20.023Z,24.41
2019-05-23T12:39:41.876Z,24.86
2019-05-23T12:42:11.398Z,25.62
2019-05-23T12:44:40.937Z,25.83
2019-05-23T12:47:19.831Z,25.25
2019-05-23T12:49:56.742Z,25.49
2019-05-23T12:52:27.092Z,25.09
2019-05-23T12:54:56.555Z,24.57
2019-05-23T12:57:26.132Z,24.93
2019-05-23T12:59:56.143Z,24.94
2019-05-23T13:02:27.369Z,25.19
2019-05-23T13:04:57.112Z,25.12
2019-05-23T13:07:35.635Z,24.45
2019-05-23T13:09:57.910Z,23.86
2019-05-23T13:12:27.898Z,23.59
2019-05-23T13:14:58.823Z,23.72
2019-05-23T13:17:28.539Z,23.56
2019-05-23T13:19:58.030Z,22.76
2019-05-23T13:22:27.870Z,22.42
2019-05-23T13:24:57.287Z,22.28
2019-05-23T13:27:26.744Z,21.70
2019-05-23T13:29:56.210Z,21.49
2019-05-23T13:32:25.897Z,21.15
2019-05-23T13:34:55.356Z,20.82
2019-05-23T13:37:24.906Z,20.50
2019-05-23T13:39:54.469Z,20.44
2019-05-23T13:42:23.816Z,20.60
2019-05-23T13:44:53.333Z,20.42
2019-05-23T13:47:22.823Z,20.30
2019-05-23T13:49:52.322Z,20.37
2019-05-23T13:52:21.689Z,20.26
2019-05-23T13:54:51.150Z,20.18
2019-05-23T13:57:20.518Z,20.20
2019-05-23T13:59:49.884Z,20.24
2019-05-23T14:02:19.793Z,20.33
2019-05-23T14:04:49.463Z,20.48
2019-05-23T14:07:18.943Z,20.48
2019-05-23T14:09:48.360Z,20.64
2019-05-23T14:12:21.799Z,20.68
2019-05-23T14:14:48.854Z,20.76
2019-05-23T14:17:30.008Z,20.87
2019-05-23T14:19:59.389Z,21.08
2019-05-23T14:22:30.494Z,20.88
2019-05-23T14:25:00.100Z,20.62
2019-05-23T14:27:51.558Z,20.41
2019-05-23T14:30:38.288Z,20.56
2019-05-23T14:33:12.580Z,20.82
2019-05-23T14:35:42.507Z,20.78
2019-05-23T14:38:29.033Z,20.57
2019-05-23T14:40:45.936Z,20.68
2019-05-23T14:43:24.571Z,20.58
2019-05-23T14:46:14.641Z,20.69
2019-05-23T14:49:09.197Z,20.82
2019-05-23T14:51:57.590Z,21.01
2019-05-23T14:54:32.896Z,21.12
2019-05-23T14:57:02.525Z,20.99
2019-05-23T14:59:32.052Z,20.69
2019-05-23T15:02:01.670Z,20.70
2019-05-23T15:04:31.034Z,21.42
2019-05-23T15:07:00.433Z,22.09
2019-05-23T15:09:30.307Z,22.51
2019-05-23T15:11:59.772Z,23.03
2019-05-23T15:14:29.348Z,23.59
2019-05-23T15:16:58.682Z,23.75
2019-05-23T15:19:41.750Z,23.40
2019-05-23T15:21:59.265Z,23.04
2019-05-23T15:24:29.018Z,23.47
2019-05-23T15:26:58.375Z,23.75
2019-05-23T15:29:29.261Z,23.67
2019-05-23T15:32:02.648Z,23.70
2019-05-23T15:34:30.346Z,23.48
2019-05-23T15:36:59.761Z,23.36
2019-05-23T15:39:29.551Z,24.04
2019-05-23T15:41:58.965Z,24.18
2019-05-23T15:44:30.227Z,23.72
2019-05-23T15:46:59.509Z,23.54
2019-05-23T15:49:29.383Z,23.48
2019-05-23T15:52:16.242Z,23.47
2019-05-23T15:54:59.071Z,23.39
2019-05-23T15:57:41.550Z,23.70
2019-05-23T16:00:27.852Z,23.85
2019-05-23T16:03:31.387Z,24.34
2019-05-23T16:06:00.785Z,24.10
2019-05-23T16:08:30.695Z,23.48
2019-05-23T16:11:00.524Z,23.28
2019-05-23T16:13:30.011Z,22.85
2019-05-23T16:15:59.570Z,22.97
2019-05-23T16:18:29.969Z,22.96
2019-05-23T16:20:59.682Z,23.01
2019-05-23T16:23:30.389Z,23.03
2019-05-23T16:26:00.215Z,22.89
2019-05-23T16:28:29.964Z,22.81
2019-05-23T16:30:59.390Z,22.59
2019-05-23T16:33:28.949Z,22.20
2019-05-23T16:35:58.420Z,22.06
2019-05-23T16:38:27.747Z,22.12
2019-05-23T16:40:57.233Z,22.47
2019-05-23T16:43:26.684Z,22.76
2019-05-23T16:45:57.273Z,22.76
2019-05-23T16:48:26.756Z,22.26
2019-05-23T16:50:56.184Z,21.81
2019-05-23T16:53:25.694Z,21.78
2019-05-23T16:56:01.554Z,21.77
2019-05-23T16:58:48.497Z,21.38
2019-05-23T17:01:36.845Z,20.71
2019-05-23T17:04:28.585Z,20.30
2019-05-23T17:07:04.238Z,20.12
2019-05-23T17:09:40.656Z,19.84
2019-05-23T17:12:35.275Z,19.91
2019-05-23T17:15:36.994Z,19.77
2019-05-23T17:18:26.919Z,19.63
2019-05-23T17:21:09.542Z,19.62
2019-05-23T17:23:51.222Z,19.56
2019-05-23T17:26:51.040Z,19.30
2019-05-23T17:29:29.591Z,19.27
2019-05-23T17:32:00.028Z,19.32
2019-05-23T17:34:29.578Z,19.29
2019-05-23T17:36:59.129Z,19.36
2019-05-23T17:39:29.694Z,19.24
2019-05-23T17:41:59.155Z,19.03
2019-05-23T17:44:28.951Z,18.81
2019-05-23T17:46:58.471Z,18.74
2019-05-23T17:49:27.855Z,18.51
2019-05-23T17:51:57.227Z,18.36
2019-05-23T17:54:26.789Z,18.32
2019-05-23T17:56:56.181Z,18.20
2019-05-23T17:59:25.668Z,18.03
2019-05-23T18:01:55.571Z,17.94
2019-05-23T18:04:25.327Z,17.75
2019-05-23T18:06:56.892Z,17.63
2019-05-23T18:09:26.949Z,17.54
2019-05-23T18:11:56.662Z,17.35
2019-05-23T18:14:26.262Z,17.26
2019-05-23T18:16:55.846Z,17.23
2019-05-23T18:19:25.690Z,17.18
2019-05-23T18:21:55.727Z,17.14
2019-05-23T18:24:25.817Z,17.17
2019-05-23T18:26:55.194Z,17.19
2019-05-23T18:29:24.867Z,17.31
2019-05-23T18:31:54.310Z,17.43
2019-05-23T18:34:23.855Z,17.58
2019-05-23T18:36:53.993Z,17.61
2019-05-23T18:39:24.646Z,17.62
2019-05-23T18:41:53.963Z,17.47
2019-05-23T18:44:23.371Z,17.48
2019-05-23T18:46:54.905Z,17.42
2019-05-23T18:49:25.765Z,17.36
2019-05-23T18:51:55.237Z,17.19
2019-05-23T18:54:24.867Z,16.97
2019-05-23T18:56:54.958Z,16.86
2019-05-23T18:59:24.828Z,16.75
2019-05-23T19:01:54.226Z,16.64
2019-05-23T19:04:24.018Z,16.59
2019-05-23T19:06:53.746Z,16.57
2019-05-23T19:09:24.171Z,16.45
2019-05-23T19:11:53.603Z,16.39
2019-05-23T19:14:23.498Z,16.36
2019-05-23T19:16:53.574Z,16.36
2019-05-23T19:19:23.060Z,16.24
2019-05-23T19:21:52.698Z,16.21
2019-05-23T19:24:22.348Z,16.27
2019-05-23T19:26:51.742Z,16.26
2019-05-23T19:29:22.527Z,16.25
2019-05-23T19:31:51.944Z,16.25
2019-05-23T19:34:21.990Z,16.32
2019-05-23T19:36:51.403Z,16.23
2019-05-23T19:39:22.369Z,16.23
2019-05-23T19:41:51.914Z,16.17
2019-05-23T19:44:21.452Z,16.07
2019-05-23T19:46:52.515Z,15.98
2019-05-23T19:49:22.560Z,15.98
2019-05-23T19:51:52.040Z,15.96
2019-05-23T19:54:21.501Z,15.88
2019-05-23T19:56:50.925Z,15.80
2019-05-23T19:59:20.988Z,15.66
2019-05-23T20:02:15.625Z,15.61
2019-05-23T20:04:53.229Z,15.58
2019-05-23T20:07:22.830Z,15.46
2019-05-23T20:09:52.546Z,15.44
2019-05-23T20:12:22.458Z,15.44
2019-05-23T20:14:51.877Z,15.44
2019-05-23T20:17:21.644Z,15.36
2019-05-23T20:19:51.077Z,15.35
2019-05-23T20:22:20.549Z,15.31
2019-05-23T20:24:49.947Z,15.30
2019-05-23T20:27:19.345Z,15.30
2019-05-23T20:29:48.706Z,15.29
2019-05-23T20:32:18.205Z,15.24
2019-05-23T20:34:47.591Z,15.15
2019-05-23T20:37:17.004Z,15.07
2019-05-23T20:39:46.572Z,15.06
2019-05-23T20:42:16.063Z,15.08
2019-05-23T20:44:45.696Z,15.07
2019-05-23T20:47:15.925Z,15.09
2019-05-23T20:49:45.383Z,15.06
2019-05-23T20:52:14.749Z,15.01
2019-05-23T20:54:44.136Z,14.92
2019-05-23T20:57:13.557Z,14.90
2019-05-23T20:59:43.189Z,14.84
2019-05-23T21:02:12.615Z,14.86
2019-05-23T21:04:42.239Z,14.90
2019-05-23T21:07:11.734Z,14.82
2019-05-23T21:09:41.100Z,14.69
2019-05-23T21:12:10.582Z,14.66
2019-05-23T21:14:40.266Z,14.60
2019-05-23T21:17:09.626Z,14.61
2019-05-23T21:19:39.029Z,14.55
2019-05-23T21:22:08.676Z,14.48
2019-05-23T21:24:38.005Z,14.55
2019-05-23T21:27:07.370Z,14.57
2019-05-23T21:29:36.833Z,14.54
2019-05-23T21:32:06.310Z,14.48
2019-05-23T21:34:35.726Z,14.49
2019-05-23T21:37:05.091Z,14.43
2019-05-23T21:39:34.635Z,14.37
2019-05-23T21:42:04.824Z,14.28
2019-05-23T21:44:34.225Z,14.25
2019-05-23T21:47:03.578Z,14.16
2019-05-23T21:49:32.982Z,14.13
2019-05-23T21:52:02.382Z,14.02
2019-05-23T21:54:31.726Z,14.01
2019-05-23T21:57:01.156Z,13.90
2019-05-23T21:59:30.562Z,13.81
2019-05-23T22:02:07.482Z,13.82
2019-05-23T22:05:05.245Z,13.83
2019-05-23T22:07:34.634Z,13.85
2019-05-23T22:10:04.685Z,13.82
2019-05-23T22:12:34.156Z,13.82
2019-05-23T22:15:05.039Z,13.89
2019-05-23T22:17:34.510Z,13.82
2019-05-23T22:20:04.314Z,13.90
2019-05-23T22:22:33.720Z,13.89
2019-05-23T22:25:03.106Z,13.88
2019-05-23T22:27:32.498Z,13.81
2019-05-23T22:30:02.275Z,13.83
2019-05-23T22:32:32.616Z,13.84
2019-05-23T22:35:17.459Z,13.79
2019-05-23T22:37:47.192Z,13.78
2019-05-23T22:40:16.910Z,13.73
2019-05-23T22:42:46.953Z,13.71
2019-05-23T22:45:18.676Z,13.72
2019-05-23T22:47:48.168Z,13.69
2019-05-23T22:50:17.637Z,13.71
2019-05-23T22:52:47.036Z,13.68
2019-05-23T22:55:16.395Z,13.69
2019-05-23T22:57:45.792Z,13.70
2019-05-23T23:00:17.148Z,13.61
2019-05-23T23:02:46.553Z,13.65
2019-05-23T23:05:16.089Z,13.67
2019-05-23T23:07:45.550Z,13.66
2019-05-23T23:10:14.904Z,13.62
2019-05-23T23:12:44.339Z,13.59
2019-05-23T23:15:13.839Z,13.53
2019-05-23T23:17:43.304Z,13.53
2019-05-23T23:20:13.004Z,13.49
2019-05-23T23:22:42.431Z,13.50
2019-05-23T23:25:12.330Z,13.49
2019-05-23T23:27:41.737Z,13.48
2019-05-23T23:30:12.851Z,13.40
2019-05-23T23:32:42.370Z,13.32
2019-05-23T23:35:11.776Z,13.24
2019-05-23T23:37:41.184Z,13.26
2019-05-23T23:40:11.553Z,13.25
2019-05-23T23:42:41.165Z,13.15
2019-05-23T23:45:28.827Z,13.14
2019-05-23T23:48:16.194Z,13.07
2019-05-23T23:51:03.401Z,13.02
2019-05-23T23:53:50.531Z,13.01
2019-05-23T23:56:37.726Z,12.98
2019-05-23T23:59:06.130Z,12.90
